sensor_id;sensor_type;location;lat;lon;timestamp;temperature;humidity
6407;DHT22;3236;51.022;6.818;2022-09-12T00:01:58;12.90;99.90
6407;DHT22;3236;51.022;6.818;2022-09-12T00:04:25;13.40;99.90
6407;DHT22;3236;51.022;6.818;2022-09-12T00:11:48;13.20;99.90
6407;DHT22;3236;51.022;6.818;2022-09-12T00:14:17;13.20;99.90
6407;DHT22;3236;51.022;6.818;2022-09-12T00:16:47;13.50;99.90
6407;DHT22;3236;51.022;6.818;2022-09-12T00:21:41;13.20;99.90
6407;DHT22;3236;51.022;6.818;2022-09-12T00:24:09;12.90;99.90
6407;DHT22;3236;51.022;6.818;2022-09-12T00:29:05;13.30;99.90
6407;DHT22;3236;51.022;6.818;2022-09-12T00:31:35;13.20;99.90
6407;DHT22;3236;51.022;6.818;2022-09-12T00:34:02;13.50;99.90
6407;DHT22;3236;51.022;6.818;2022-09-12T00:36:29;12.90;99.90
6407;DHT22;3236;51.022;6.818;2022-09-12T00:41:25;12.80;99.90
6407;DHT22;3236;51.022;6.818;2022-09-12T00:43:54;12.50;99.90
6407;DHT22;3236;51.022;6.818;2022-09-12T00:46:31;12.70;99.90
6407;DHT22;3236;51.022;6.818;2022-09-12T00:49:02;12.10;99.90
6407;DHT22;3236;51.022;6.818;2022-09-12T00:51:33;12.60;99.90
6407;DHT22;3236;51.022;6.818;2022-09-12T00:54:04;12.60;99.90
6407;DHT22;3236;51.022;6.818;2022-09-12T00:56:33;12.80;99.90
6407;DHT22;3236;51.022;6.818;2022-09-12T00:59:06;12.60;99.90
6407;DHT22;3236;51.022;6.818;2022-09-12T01:01:36;12.70;99.90
6407;DHT22;3236;51.022;6.818;2022-09-12T01:04:03;13.10;99.90
6407;DHT22;3236;51.022;6.818;2022-09-12T01:06:34;12.50;99.90
6407;DHT22;3236;51.022;6.818;2022-09-12T01:09:02;12.60;99.90
6407;DHT22;3236;51.022;6.818;2022-09-12T01:11:30;12.40;99.90
6407;DHT22;3236;51.022;6.818;2022-09-12T01:13:58;12.60;99.90
6407;DHT22;3236;51.022;6.818;2022-09-12T01:16:25;12.30;99.90
6407;DHT22;3236;51.022;6.818;2022-09-12T01:19:01;12.70;99.90
6407;DHT22;3236;51.022;6.818;2022-09-12T01:24:36;12.60;99.90
6407;DHT22;3236;51.022;6.818;2022-09-12T01:27:26;12.90;99.90
6407;DHT22;3236;51.022;6.818;2022-09-12T01:30:31;12.60;99.90
6407;DHT22;3236;51.022;6.818;2022-09-12T01:33:39;12.60;99.90
6407;DHT22;3236;51.022;6.818;2022-09-12T01:36:22;13.30;99.90
6407;DHT22;3236;51.022;6.818;2022-09-12T01:38:57;12.50;99.90
6407;DHT22;3236;51.022;6.818;2022-09-12T01:41:28;13.00;99.90
6407;DHT22;3236;51.022;6.818;2022-09-12T01:44:01;12.60;99.90
6407;DHT22;3236;51.022;6.818;2022-09-12T01:46:43;12.60;99.90
6407;DHT22;3236;51.022;6.818;2022-09-12T01:49:16;12.60;99.90
6407;DHT22;3236;51.022;6.818;2022-09-12T01:51:53;12.50;99.90
6407;DHT22;3236;51.022;6.818;2022-09-12T01:54:26;12.80;99.90
6407;DHT22;3236;51.022;6.818;2022-09-12T01:57:00;12.60;99.90
6407;DHT22;3236;51.022;6.818;2022-09-12T01:59:32;12.60;99.90
6407;DHT22;3236;51.022;6.818;2022-09-12T02:02:03;12.60;99.90
6407;DHT22;3236;51.022;6.818;2022-09-12T02:04:37;12.10;99.90
6407;DHT22;3236;51.022;6.818;2022-09-12T02:07:11;12.60;99.90
6407;DHT22;3236;51.022;6.818;2022-09-12T02:09:42;12.50;99.90
6407;DHT22;3236;51.022;6.818;2022-09-12T02:12:13;12.20;99.90
6407;DHT22;3236;51.022;6.818;2022-09-12T02:14:45;12.40;99.90
6407;DHT22;3236;51.022;6.818;2022-09-12T02:17:15;12.50;99.90
6407;DHT22;3236;51.022;6.818;2022-09-12T02:19:53;12.60;99.90
6407;DHT22;3236;51.022;6.818;2022-09-12T02:22:24;12.80;99.90
6407;DHT22;3236;51.022;6.818;2022-09-12T02:24:55;12.50;99.90
6407;DHT22;3236;51.022;6.818;2022-09-12T02:27:26;12.60;99.90
6407;DHT22;3236;51.022;6.818;2022-09-12T02:32:30;12.60;99.90
6407;DHT22;3236;51.022;6.818;2022-09-12T02:37:37;12.50;99.90
6407;DHT22;3236;51.022;6.818;2022-09-12T02:40:08;12.50;99.90
6407;DHT22;3236;51.022;6.818;2022-09-12T02:42:35;13.30;99.90
6407;DHT22;3236;51.022;6.818;2022-09-12T02:45:03;12.60;99.90
6407;DHT22;3236;51.022;6.818;2022-09-12T02:47:35;12.50;99.90
6407;DHT22;3236;51.022;6.818;2022-09-12T02:52:33;12.10;99.90
6407;DHT22;3236;51.022;6.818;2022-09-12T02:55:01;12.40;99.90
6407;DHT22;3236;51.022;6.818;2022-09-12T02:57:28;12.20;99.90
6407;DHT22;3236;51.022;6.818;2022-09-12T02:59:58;12.60;99.90
6407;DHT22;3236;51.022;6.818;2022-09-12T03:02:34;12.60;99.90
6407;DHT22;3236;51.022;6.818;2022-09-12T03:05:31;12.20;99.90
6407;DHT22;3236;51.022;6.818;2022-09-12T03:08:26;11.90;99.90
6407;DHT22;3236;51.022;6.818;2022-09-12T03:11:11;12.10;99.90
6407;DHT22;3236;51.022;6.818;2022-09-12T03:13:48;11.60;99.90
6407;DHT22;3236;51.022;6.818;2022-09-12T03:16:23;11.70;99.90
6407;DHT22;3236;51.022;6.818;2022-09-12T03:18:59;11.90;99.90
6407;DHT22;3236;51.022;6.818;2022-09-12T03:21:32;12.00;99.90
6407;DHT22;3236;51.022;6.818;2022-09-12T03:24:08;12.00;99.90
6407;DHT22;3236;51.022;6.818;2022-09-12T03:26:41;12.30;99.90
6407;DHT22;3236;51.022;6.818;2022-09-12T03:29:10;12.20;99.90
6407;DHT22;3236;51.022;6.818;2022-09-12T03:31:48;12.10;99.90
6407;DHT22;3236;51.022;6.818;2022-09-12T03:34:17;14.60;99.90
6407;DHT22;3236;51.022;6.818;2022-09-12T03:36:44;12.00;99.90
6407;DHT22;3236;51.022;6.818;2022-09-12T03:41:38;12.40;99.90
6407;DHT22;3236;51.022;6.818;2022-09-12T03:44:14;12.40;99.90
6407;DHT22;3236;51.022;6.818;2022-09-12T03:46:41;12.50;99.90
6407;DHT22;3236;51.022;6.818;2022-09-12T03:49:08;12.20;99.90
6407;DHT22;3236;51.022;6.818;2022-09-12T03:51:37;12.30;99.90
6407;DHT22;3236;51.022;6.818;2022-09-12T03:56:34;11.50;99.90
6407;DHT22;3236;51.022;6.818;2022-09-12T03:59:03;11.80;99.90
6407;DHT22;3236;51.022;6.818;2022-09-12T04:03:58;11.80;99.90
6407;DHT22;3236;51.022;6.818;2022-09-12T04:06:24;12.00;99.90
6407;DHT22;3236;51.022;6.818;2022-09-12T04:08:54;11.50;99.90
6407;DHT22;3236;51.022;6.818;2022-09-12T04:11:22;11.90;99.90
6407;DHT22;3236;51.022;6.818;2022-09-12T04:16:16;11.80;99.90
6407;DHT22;3236;51.022;6.818;2022-09-12T04:21:12;12.10;99.90
6407;DHT22;3236;51.022;6.818;2022-09-12T04:23:40;12.20;99.90
6407;DHT22;3236;51.022;6.818;2022-09-12T04:26:09;12.10;99.90
6407;DHT22;3236;51.022;6.818;2022-09-12T04:28:38;12.10;99.90
6407;DHT22;3236;51.022;6.818;2022-09-12T04:31:07;12.30;99.90
6407;DHT22;3236;51.022;6.818;2022-09-12T04:33:35;12.10;99.90
6407;DHT22;3236;51.022;6.818;2022-09-12T04:36:04;12.50;99.90
6407;DHT22;3236;51.022;6.818;2022-09-12T04:43:27;12.20;99.90
6407;DHT22;3236;51.022;6.818;2022-09-12T04:58:10;12.20;99.90
6407;DHT22;3236;51.022;6.818;2022-09-12T05:00:39;12.10;99.90
6407;DHT22;3236;51.022;6.818;2022-09-12T05:03:05;12.00;99.90
6407;DHT22;3236;51.022;6.818;2022-09-12T05:05:33;12.00;99.90
6407;DHT22;3236;51.022;6.818;2022-09-12T05:08:01;11.80;99.90
6407;DHT22;3236;51.022;6.818;2022-09-12T05:12:56;12.10;99.90
6407;DHT22;3236;51.022;6.818;2022-09-12T05:17:51;12.00;99.90
6407;DHT22;3236;51.022;6.818;2022-09-12T05:22:46;12.00;99.90
6407;DHT22;3236;51.022;6.818;2022-09-12T05:25:13;12.00;99.90
6407;DHT22;3236;51.022;6.818;2022-09-12T05:27:41;11.60;99.90
6407;DHT22;3236;51.022;6.818;2022-09-12T05:30:11;11.60;99.90
6407;DHT22;3236;51.022;6.818;2022-09-12T05:35:11;12.40;99.90
6407;DHT22;3236;51.022;6.818;2022-09-12T05:40:06;12.30;99.90
6407;DHT22;3236;51.022;6.818;2022-09-12T05:45:01;12.70;99.90
6407;DHT22;3236;51.022;6.818;2022-09-12T05:47:28;12.70;99.90
6407;DHT22;3236;51.022;6.818;2022-09-12T05:49:55;12.80;99.90
6407;DHT22;3236;51.022;6.818;2022-09-12T05:52:25;12.90;99.90
6407;DHT22;3236;51.022;6.818;2022-09-12T05:54:52;13.20;99.90
6407;DHT22;3236;51.022;6.818;2022-09-12T05:57:19;12.70;99.90
6407;DHT22;3236;51.022;6.818;2022-09-12T05:59:46;13.40;99.90
6407;DHT22;3236;51.022;6.818;2022-09-12T06:02:14;13.40;99.90
6407;DHT22;3236;51.022;6.818;2022-09-12T06:04:41;13.20;99.90
6407;DHT22;3236;51.022;6.818;2022-09-12T06:07:11;13.50;99.90
6407;DHT22;3236;51.022;6.818;2022-09-12T06:09:40;13.60;99.90
6407;DHT22;3236;51.022;6.818;2022-09-12T06:12:07;13.70;99.90
6407;DHT22;3236;51.022;6.818;2022-09-12T06:14:34;13.70;99.90
6407;DHT22;3236;51.022;6.818;2022-09-12T06:19:30;13.80;99.90
6407;DHT22;3236;51.022;6.818;2022-09-12T06:21:57;14.40;99.90
6407;DHT22;3236;51.022;6.818;2022-09-12T06:26:53;14.00;99.90
6407;DHT22;3236;51.022;6.818;2022-09-12T06:29:20;14.20;99.90
6407;DHT22;3236;51.022;6.818;2022-09-12T06:31:47;13.60;99.90
6407;DHT22;3236;51.022;6.818;2022-09-12T06:34:15;14.20;99.90
6407;DHT22;3236;51.022;6.818;2022-09-12T06:36:43;14.40;99.90
6407;DHT22;3236;51.022;6.818;2022-09-12T06:44:11;14.50;99.90
6407;DHT22;3236;51.022;6.818;2022-09-12T06:46:38;15.00;99.90
6407;DHT22;3236;51.022;6.818;2022-09-12T06:51:32;15.20;99.90
6407;DHT22;3236;51.022;6.818;2022-09-12T06:54:01;14.80;99.90
6407;DHT22;3236;51.022;6.818;2022-09-12T06:58:56;14.80;99.90
6407;DHT22;3236;51.022;6.818;2022-09-12T07:03:54;15.30;99.90
6407;DHT22;3236;51.022;6.818;2022-09-12T07:06:23;15.20;99.90
6407;DHT22;3236;51.022;6.818;2022-09-12T07:11:20;15.30;99.90
6407;DHT22;3236;51.022;6.818;2022-09-12T07:13:49;15.40;99.90
6407;DHT22;3236;51.022;6.818;2022-09-12T07:16:17;15.50;99.90
6407;DHT22;3236;51.022;6.818;2022-09-12T07:18:49;15.60;99.90
6407;DHT22;3236;51.022;6.818;2022-09-12T07:21:16;15.50;99.90
6407;DHT22;3236;51.022;6.818;2022-09-12T07:23:43;15.50;99.90
6407;DHT22;3236;51.022;6.818;2022-09-12T07:26:12;15.90;99.90
6407;DHT22;3236;51.022;6.818;2022-09-12T07:28:39;15.70;99.90
6407;DHT22;3236;51.022;6.818;2022-09-12T07:31:09;16.10;99.90
6407;DHT22;3236;51.022;6.818;2022-09-12T07:33:37;16.20;99.90
6407;DHT22;3236;51.022;6.818;2022-09-12T07:36:06;16.20;99.90
6407;DHT22;3236;51.022;6.818;2022-09-12T07:38:35;16.30;99.90
6407;DHT22;3236;51.022;6.818;2022-09-12T07:41:09;16.70;99.90
6407;DHT22;3236;51.022;6.818;2022-09-12T07:46:04;16.30;99.90
6407;DHT22;3236;51.022;6.818;2022-09-12T07:50:58;16.90;99.90
6407;DHT22;3236;51.022;6.818;2022-09-12T07:53:30;17.30;99.90
6407;DHT22;3236;51.022;6.818;2022-09-12T07:55:59;17.50;99.90
6407;DHT22;3236;51.022;6.818;2022-09-12T08:01:02;17.20;99.90
6407;DHT22;3236;51.022;6.818;2022-09-12T08:06:02;16.90;99.90
6407;DHT22;3236;51.022;6.818;2022-09-12T08:08:31;17.30;99.90
6407;DHT22;3236;51.022;6.818;2022-09-12T08:10:58;17.50;99.90
6407;DHT22;3236;51.022;6.818;2022-09-12T08:13:26;18.00;99.90
6407;DHT22;3236;51.022;6.818;2022-09-12T08:15:56;17.50;99.90
6407;DHT22;3236;51.022;6.818;2022-09-12T08:25:54;17.80;99.90
6407;DHT22;3236;51.022;6.818;2022-09-12T08:38:10;17.80;99.90
6407;DHT22;3236;51.022;6.818;2022-09-12T08:40:43;18.00;99.90
6407;DHT22;3236;51.022;6.818;2022-09-12T08:43:26;18.20;99.90
6407;DHT22;3236;51.022;6.818;2022-09-12T08:46:03;18.00;99.90
6407;DHT22;3236;51.022;6.818;2022-09-12T08:48:33;18.70;99.90
6407;DHT22;3236;51.022;6.818;2022-09-12T08:51:01;18.40;99.90
6407;DHT22;3236;51.022;6.818;2022-09-12T08:53:31;18.50;99.90
6407;DHT22;3236;51.022;6.818;2022-09-12T09:01:09;18.50;99.90
6407;DHT22;3236;51.022;6.818;2022-09-12T09:06:22;18.00;99.90
6407;DHT22;3236;51.022;6.818;2022-09-12T09:08:58;19.20;99.90
6407;DHT22;3236;51.022;6.818;2022-09-12T09:11:49;19.40;99.90
6407;DHT22;3236;51.022;6.818;2022-09-12T09:14:35;19.50;99.90
6407;DHT22;3236;51.022;6.818;2022-09-12T09:17:18;19.60;99.90
6407;DHT22;3236;51.022;6.818;2022-09-12T09:19:53;19.70;99.90
6407;DHT22;3236;51.022;6.818;2022-09-12T09:22:28;19.80;99.90
6407;DHT22;3236;51.022;6.818;2022-09-12T09:25:01;19.90;99.90
6407;DHT22;3236;51.022;6.818;2022-09-12T09:27:32;20.10;99.90
6407;DHT22;3236;51.022;6.818;2022-09-12T09:30:03;20.20;99.90
6407;DHT22;3236;51.022;6.818;2022-09-12T09:32:33;20.20;99.90
6407;DHT22;3236;51.022;6.818;2022-09-12T09:37:34;20.70;99.90
6407;DHT22;3236;51.022;6.818;2022-09-12T09:40:14;20.60;99.90
6407;DHT22;3236;51.022;6.818;2022-09-12T09:42:48;20.50;99.90
6407;DHT22;3236;51.022;6.818;2022-09-12T09:45:24;20.60;99.90
6407;DHT22;3236;51.022;6.818;2022-09-12T09:47:57;21.10;99.90
6407;DHT22;3236;51.022;6.818;2022-09-12T09:52:55;21.00;99.90
6407;DHT22;3236;51.022;6.818;2022-09-12T09:55:27;20.70;99.90
6407;DHT22;3236;51.022;6.818;2022-09-12T10:00:27;21.30;99.90
6407;DHT22;3236;51.022;6.818;2022-09-12T10:03:00;21.30;99.90
6407;DHT22;3236;51.022;6.818;2022-09-12T10:05:31;21.60;99.90
6407;DHT22;3236;51.022;6.818;2022-09-12T10:07:59;21.90;99.90
6407;DHT22;3236;51.022;6.818;2022-09-12T10:13:06;21.70;99.90
6407;DHT22;3236;51.022;6.818;2022-09-12T10:15:36;21.60;99.90
6407;DHT22;3236;51.022;6.818;2022-09-12T10:18:06;21.70;99.90
6407;DHT22;3236;51.022;6.818;2022-09-12T10:20:38;21.90;99.90
6407;DHT22;3236;51.022;6.818;2022-09-12T10:23:26;22.10;99.90
6407;DHT22;3236;51.022;6.818;2022-09-12T10:25:57;22.10;99.90
6407;DHT22;3236;51.022;6.818;2022-09-12T10:28:32;22.20;99.90
6407;DHT22;3236;51.022;6.818;2022-09-12T10:31:02;22.10;99.90
6407;DHT22;3236;51.022;6.818;2022-09-12T10:33:34;22.40;99.90
6407;DHT22;3236;51.022;6.818;2022-09-12T10:38:31;22.20;99.90
6407;DHT22;3236;51.022;6.818;2022-09-12T10:41:02;22.80;99.90
6407;DHT22;3236;51.022;6.818;2022-09-12T10:43:33;22.50;99.90
6407;DHT22;3236;51.022;6.818;2022-09-12T10:46:21;22.70;99.90
6407;DHT22;3236;51.022;6.818;2022-09-12T10:48:50;23.00;99.90
6407;DHT22;3236;51.022;6.818;2022-09-12T10:51:26;23.20;99.90
6407;DHT22;3236;51.022;6.818;2022-09-12T10:53:55;23.50;99.90
6407;DHT22;3236;51.022;6.818;2022-09-12T10:56:28;23.40;99.90
6407;DHT22;3236;51.022;6.818;2022-09-12T10:59:12;23.80;99.90
6407;DHT22;3236;51.022;6.818;2022-09-12T11:01:47;24.30;99.90
6407;DHT22;3236;51.022;6.818;2022-09-12T11:04:23;24.80;99.90
6407;DHT22;3236;51.022;6.818;2022-09-12T11:07:03;25.70;99.90
6407;DHT22;3236;51.022;6.818;2022-09-12T11:09:34;26.40;99.90
6407;DHT22;3236;51.022;6.818;2022-09-12T11:12:11;26.80;99.90
6407;DHT22;3236;51.022;6.818;2022-09-12T11:14:55;26.30;96.30
6407;DHT22;3236;51.022;6.818;2022-09-12T11:17:39;26.60;95.80
6407;DHT22;3236;51.022;6.818;2022-09-12T11:25:50;26.80;93.10
6407;DHT22;3236;51.022;6.818;2022-09-12T11:30:54;28.10;94.10
6407;DHT22;3236;51.022;6.818;2022-09-12T11:33:39;27.50;89.80
6407;DHT22;3236;51.022;6.818;2022-09-12T11:36:15;26.90;91.40
6407;DHT22;3236;51.022;6.818;2022-09-12T11:39:07;27.30;88.00
6407;DHT22;3236;51.022;6.818;2022-09-12T11:41:41;27.60;88.40
6407;DHT22;3236;51.022;6.818;2022-09-12T11:44:14;28.30;88.80
6407;DHT22;3236;51.022;6.818;2022-09-12T11:46:44;27.60;88.00
6407;DHT22;3236;51.022;6.818;2022-09-12T11:49:23;27.70;83.80
6407;DHT22;3236;51.022;6.818;2022-09-12T11:51:55;27.80;82.10
6407;DHT22;3236;51.022;6.818;2022-09-12T11:54:24;27.60;82.30
6407;DHT22;3236;51.022;6.818;2022-09-12T11:57:00;27.90;82.60
6407;DHT22;3236;51.022;6.818;2022-09-12T11:59:36;28.10;82.00
6407;DHT22;3236;51.022;6.818;2022-09-12T12:02:11;28.20;78.50
6407;DHT22;3236;51.022;6.818;2022-09-12T12:04:44;28.50;81.20
6407;DHT22;3236;51.022;6.818;2022-09-12T12:07:15;29.30;77.00
6407;DHT22;3236;51.022;6.818;2022-09-12T12:09:48;29.50;73.90
6407;DHT22;3236;51.022;6.818;2022-09-12T12:12:20;28.90;75.10
6407;DHT22;3236;51.022;6.818;2022-09-12T12:14:50;28.00;73.10
6407;DHT22;3236;51.022;6.818;2022-09-12T12:17:20;27.70;74.10
6407;DHT22;3236;51.022;6.818;2022-09-12T12:19:56;27.90;72.40
6407;DHT22;3236;51.022;6.818;2022-09-12T12:27:51;29.10;71.50
6407;DHT22;3236;51.022;6.818;2022-09-12T12:36:42;29.30;69.10
6407;DHT22;3236;51.022;6.818;2022-09-12T12:46:10;28.80;70.70
6407;DHT22;3236;51.022;6.818;2022-09-12T12:51:31;29.00;67.40
6407;DHT22;3236;51.022;6.818;2022-09-12T12:54:02;29.00;68.20
6407;DHT22;3236;51.022;6.818;2022-09-12T12:56:34;29.00;68.00
6407;DHT22;3236;51.022;6.818;2022-09-12T12:59:10;29.00;67.80
6407;DHT22;3236;51.022;6.818;2022-09-12T13:01:44;29.20;66.60
6407;DHT22;3236;51.022;6.818;2022-09-12T13:04:14;29.00;70.10
6407;DHT22;3236;51.022;6.818;2022-09-12T13:06:43;29.80;66.70
6407;DHT22;3236;51.022;6.818;2022-09-12T13:09:20;30.10;67.30
6407;DHT22;3236;51.022;6.818;2022-09-12T13:14:46;30.00;66.50
6407;DHT22;3236;51.022;6.818;2022-09-12T13:17:19;29.70;67.10
6407;DHT22;3236;51.022;6.818;2022-09-12T13:22:15;30.40;65.70
6407;DHT22;3236;51.022;6.818;2022-09-12T13:24:45;30.00;65.70
6407;DHT22;3236;51.022;6.818;2022-09-12T13:27:17;29.90;66.00
6407;DHT22;3236;51.022;6.818;2022-09-12T13:29:45;29.80;64.80
6407;DHT22;3236;51.022;6.818;2022-09-12T13:32:13;29.70;66.20
6407;DHT22;3236;51.022;6.818;2022-09-12T13:34:51;30.30;66.80
6407;DHT22;3236;51.022;6.818;2022-09-12T13:40:28;32.40;64.80
6407;DHT22;3236;51.022;6.818;2022-09-12T13:43:10;33.30;62.20
6407;DHT22;3236;51.022;6.818;2022-09-12T13:48:11;31.60;60.30
6407;DHT22;3236;51.022;6.818;2022-09-12T13:50:42;32.80;62.30
6407;DHT22;3236;51.022;6.818;2022-09-12T13:55:44;30.50;59.50
6407;DHT22;3236;51.022;6.818;2022-09-12T13:58:18;29.60;61.40
6407;DHT22;3236;51.022;6.818;2022-09-12T14:03:25;29.00;62.70
6407;DHT22;3236;51.022;6.818;2022-09-12T14:06:10;29.80;62.10
6407;DHT22;3236;51.022;6.818;2022-09-12T14:08:39;29.90;62.40
6407;DHT22;3236;51.022;6.818;2022-09-12T14:11:09;30.80;62.00
6407;DHT22;3236;51.022;6.818;2022-09-12T14:13:37;32.00;62.10
6407;DHT22;3236;51.022;6.818;2022-09-12T14:16:05;32.00;62.40
6407;DHT22;3236;51.022;6.818;2022-09-12T14:18:36;31.90;62.90
6407;DHT22;3236;51.022;6.818;2022-09-12T14:21:08;30.30;62.50
6407;DHT22;3236;51.022;6.818;2022-09-12T14:23:45;30.10;61.30
6407;DHT22;3236;51.022;6.818;2022-09-12T14:26:18;30.50;61.10
6407;DHT22;3236;51.022;6.818;2022-09-12T14:31:22;29.60;62.00
6407;DHT22;3236;51.022;6.818;2022-09-12T14:38:50;29.80;60.30
6407;DHT22;3236;51.022;6.818;2022-09-12T14:41:25;29.50;62.40
6407;DHT22;3236;51.022;6.818;2022-09-12T14:46:23;30.20;62.10
6407;DHT22;3236;51.022;6.818;2022-09-12T14:48:53;29.90;62.60
6407;DHT22;3236;51.022;6.818;2022-09-12T14:51:24;29.90;63.50
6407;DHT22;3236;51.022;6.818;2022-09-12T14:53:52;30.20;62.80
6407;DHT22;3236;51.022;6.818;2022-09-12T14:56:35;29.80;62.70
6407;DHT22;3236;51.022;6.818;2022-09-12T14:59:25;30.30;61.70
6407;DHT22;3236;51.022;6.818;2022-09-12T15:02:24;30.20;61.60
6407;DHT22;3236;51.022;6.818;2022-09-12T15:04:53;30.80;62.80
6407;DHT22;3236;51.022;6.818;2022-09-12T15:07:28;30.70;61.90
6407;DHT22;3236;51.022;6.818;2022-09-12T15:09:58;31.70;61.40
6407;DHT22;3236;51.022;6.818;2022-09-12T15:12:27;30.60;60.50
6407;DHT22;3236;51.022;6.818;2022-09-12T15:14:58;30.80;60.40
6407;DHT22;3236;51.022;6.818;2022-09-12T15:19:53;30.80;61.20
6407;DHT22;3236;51.022;6.818;2022-09-12T15:22:22;30.40;61.50
6407;DHT22;3236;51.022;6.818;2022-09-12T15:24:50;30.30;62.50
6407;DHT22;3236;51.022;6.818;2022-09-12T15:29:46;29.10;62.50
6407;DHT22;3236;51.022;6.818;2022-09-12T15:32:21;29.30;63.70
6407;DHT22;3236;51.022;6.818;2022-09-12T15:34:48;29.60;64.50
6407;DHT22;3236;51.022;6.818;2022-09-12T15:37:16;28.70;63.70
6407;DHT22;3236;51.022;6.818;2022-09-12T15:42:11;28.00;65.80
6407;DHT22;3236;51.022;6.818;2022-09-12T15:44:39;28.00;65.90
6407;DHT22;3236;51.022;6.818;2022-09-12T15:47:10;28.60;66.30
6407;DHT22;3236;51.022;6.818;2022-09-12T15:52:05;28.90;66.90
6407;DHT22;3236;51.022;6.818;2022-09-12T15:54:32;28.40;66.10
6407;DHT22;3236;51.022;6.818;2022-09-12T16:01:55;28.30;65.50
6407;DHT22;3236;51.022;6.818;2022-09-12T16:04:28;27.90;66.90
6407;DHT22;3236;51.022;6.818;2022-09-12T16:11:50;27.40;65.60
6407;DHT22;3236;51.022;6.818;2022-09-12T16:14:18;27.20;68.50
6407;DHT22;3236;51.022;6.818;2022-09-12T16:16:51;27.10;67.20
6407;DHT22;3236;51.022;6.818;2022-09-12T16:19:19;26.80;68.40
6407;DHT22;3236;51.022;6.818;2022-09-12T16:21:48;27.10;68.00
6407;DHT22;3236;51.022;6.818;2022-09-12T16:24:16;27.30;69.10
6407;DHT22;3236;51.022;6.818;2022-09-12T16:26:43;27.00;70.20
6407;DHT22;3236;51.022;6.818;2022-09-12T16:29:11;27.00;69.40
6407;DHT22;3236;51.022;6.818;2022-09-12T16:31:38;27.60;69.90
6407;DHT22;3236;51.022;6.818;2022-09-12T16:34:05;26.40;70.60
6407;DHT22;3236;51.022;6.818;2022-09-12T16:43:57;25.50;72.30
6407;DHT22;3236;51.022;6.818;2022-09-12T16:46:25;25.90;72.20
6407;DHT22;3236;51.022;6.818;2022-09-12T16:48:54;25.50;73.60
6407;DHT22;3236;51.022;6.818;2022-09-12T16:51:23;25.70;73.60
6407;DHT22;3236;51.022;6.818;2022-09-12T16:56:20;25.40;73.60
6407;DHT22;3236;51.022;6.818;2022-09-12T17:01:16;25.30;75.50
6407;DHT22;3236;51.022;6.818;2022-09-12T17:03:44;24.80;74.80
6407;DHT22;3236;51.022;6.818;2022-09-12T17:06:12;24.80;76.00
6407;DHT22;3236;51.022;6.818;2022-09-12T17:08:41;25.00;77.20
6407;DHT22;3236;51.022;6.818;2022-09-12T17:11:10;24.90;75.70
6407;DHT22;3236;51.022;6.818;2022-09-12T17:13:39;24.80;76.20
6407;DHT22;3236;51.022;6.818;2022-09-12T17:16:07;24.60;75.70
6407;DHT22;3236;51.022;6.818;2022-09-12T17:30:55;24.00;90.20
6407;DHT22;3236;51.022;6.818;2022-09-12T17:43:12;23.60;99.90
6407;DHT22;3236;51.022;6.818;2022-09-12T17:45:43;23.00;99.90
6407;DHT22;3236;51.022;6.818;2022-09-12T17:48:12;22.60;99.90
6407;DHT22;3236;51.022;6.818;2022-09-12T17:50:39;22.70;99.90
6407;DHT22;3236;51.022;6.818;2022-09-12T17:53:07;22.20;99.90
6407;DHT22;3236;51.022;6.818;2022-09-12T18:00:29;22.00;99.90
6407;DHT22;3236;51.022;6.818;2022-09-12T18:03:12;23.70;99.90
6407;DHT22;3236;51.022;6.818;2022-09-12T18:05:44;21.90;99.90
6407;DHT22;3236;51.022;6.818;2022-09-12T18:08:12;21.40;99.90
6407;DHT22;3236;51.022;6.818;2022-09-12T18:13:06;21.10;99.90
6407;DHT22;3236;51.022;6.818;2022-09-12T18:18:01;21.30;99.90
6407;DHT22;3236;51.022;6.818;2022-09-12T18:20:30;20.90;99.90
6407;DHT22;3236;51.022;6.818;2022-09-12T18:23:03;20.80;99.90
6407;DHT22;3236;51.022;6.818;2022-09-12T18:37:48;20.50;99.90
6407;DHT22;3236;51.022;6.818;2022-09-12T18:40:15;20.60;99.90
6407;DHT22;3236;51.022;6.818;2022-09-12T18:42:43;20.60;99.90
6407;DHT22;3236;51.022;6.818;2022-09-12T18:45:10;20.50;99.90
6407;DHT22;3236;51.022;6.818;2022-09-12T18:50:04;19.90;99.90
6407;DHT22;3236;51.022;6.818;2022-09-12T19:02:28;19.90;99.90
6407;DHT22;3236;51.022;6.818;2022-09-12T19:04:55;20.40;99.90
6407;DHT22;3236;51.022;6.818;2022-09-12T19:12:19;19.90;99.90
6407;DHT22;3236;51.022;6.818;2022-09-12T19:29:33;18.80;99.90
6407;DHT22;3236;51.022;6.818;2022-09-12T19:46:47;20.40;99.90
6407;DHT22;3236;51.022;6.818;2022-09-12T19:49:14;19.80;99.90
6407;DHT22;3236;51.022;6.818;2022-09-12T19:51:41;19.40;99.90
6407;DHT22;3236;51.022;6.818;2022-09-12T19:56:36;19.70;99.90
6407;DHT22;3236;51.022;6.818;2022-09-12T20:04:05;19.10;99.90
6407;DHT22;3236;51.022;6.818;2022-09-12T20:11:28;18.60;99.90
6407;DHT22;3236;51.022;6.818;2022-09-12T20:16:24;18.80;99.90
6407;DHT22;3236;51.022;6.818;2022-09-12T20:18:54;18.70;99.90
6407;DHT22;3236;51.022;6.818;2022-09-12T20:21:26;18.60;99.90
6407;DHT22;3236;51.022;6.818;2022-09-12T20:23:59;18.30;99.90
6407;DHT22;3236;51.022;6.818;2022-09-12T20:26:26;18.40;99.90
6407;DHT22;3236;51.022;6.818;2022-09-12T20:33:48;18.00;99.90
6407;DHT22;3236;51.022;6.818;2022-09-12T20:36:16;18.50;99.90
6407;DHT22;3236;51.022;6.818;2022-09-12T20:38:48;18.30;99.90
6407;DHT22;3236;51.022;6.818;2022-09-12T20:41:16;18.30;99.90
6407;DHT22;3236;51.022;6.818;2022-09-12T20:43:43;18.20;99.90
6407;DHT22;3236;51.022;6.818;2022-09-12T20:48:38;18.30;99.90
6407;DHT22;3236;51.022;6.818;2022-09-12T20:51:05;18.10;99.90
6407;DHT22;3236;51.022;6.818;2022-09-12T20:53:33;18.50;99.90
6407;DHT22;3236;51.022;6.818;2022-09-12T20:58:30;18.00;99.90
6407;DHT22;3236;51.022;6.818;2022-09-12T21:00:57;17.60;99.90
6407;DHT22;3236;51.022;6.818;2022-09-12T21:03:23;18.20;99.90
6407;DHT22;3236;51.022;6.818;2022-09-12T21:05:51;17.80;99.90
6407;DHT22;3236;51.022;6.818;2022-09-12T21:08:18;18.40;99.90
6407;DHT22;3236;51.022;6.818;2022-09-12T21:10:45;18.00;99.90
6407;DHT22;3236;51.022;6.818;2022-09-12T21:13:14;17.90;99.90
6407;DHT22;3236;51.022;6.818;2022-09-12T21:15:41;17.80;99.90
6407;DHT22;3236;51.022;6.818;2022-09-12T21:18:09;17.70;99.90
6407;DHT22;3236;51.022;6.818;2022-09-12T21:20:36;18.10;99.90
6407;DHT22;3236;51.022;6.818;2022-09-12T21:23:03;17.90;99.90
6407;DHT22;3236;51.022;6.818;2022-09-12T21:25:30;17.80;99.90
6407;DHT22;3236;51.022;6.818;2022-09-12T21:27:57;17.60;99.90
6407;DHT22;3236;51.022;6.818;2022-09-12T21:30:25;17.80;99.90
6407;DHT22;3236;51.022;6.818;2022-09-12T21:32:52;17.80;99.90
6407;DHT22;3236;51.022;6.818;2022-09-12T21:35:20;17.80;99.90
6407;DHT22;3236;51.022;6.818;2022-09-12T21:37:46;17.60;99.90
6407;DHT22;3236;51.022;6.818;2022-09-12T21:40:16;17.60;99.90
6407;DHT22;3236;51.022;6.818;2022-09-12T21:42:44;17.00;99.90
6407;DHT22;3236;51.022;6.818;2022-09-12T21:47:41;17.40;99.90
6407;DHT22;3236;51.022;6.818;2022-09-12T21:50:09;17.10;99.90
6407;DHT22;3236;51.022;6.818;2022-09-12T21:52:36;16.80;99.90
6407;DHT22;3236;51.022;6.818;2022-09-12T21:59:58;16.70;99.90
6407;DHT22;3236;51.022;6.818;2022-09-12T22:02:26;16.60;99.90
6407;DHT22;3236;51.022;6.818;2022-09-12T22:04:55;16.90;99.90
6407;DHT22;3236;51.022;6.818;2022-09-12T22:07:23;16.50;99.90
6407;DHT22;3236;51.022;6.818;2022-09-12T22:12:18;16.80;99.90
6407;DHT22;3236;51.022;6.818;2022-09-12T22:14:45;16.60;99.90